Impacts TAF Board INFO
FOR SITUATIONAL AWARENESS. NOT TO BE USED FOR FLIGHT PLANNING PURPOSES.
IDs:

KPHL - Philadelphia Intl, PA, US

Issued at 2320 UTC 21 Jan 2018
Updated at 0027 UTC 22 Jan 2018
Potential Impact None Slight Moderate High
Time2354Z 22/01Z 22/02Z 22/03Z 22/04Z 22/05Z 22/06Z 22/07Z 22/08Z 22/09Z 22/10Z 22/11Z 22/12Z 22/13Z>>
Type OBS PRVL PRVL PRVL PRVL PRVL PRVL PRVL PRVL PRVL PRVL PRVL PRVL PRVL
VIS 10 >6 >6 >6 >6 >6 >6 >6 >6 5 5 5 5 5
CIG -- 50 50 50 50 50 50 30 30 20 20 20 20 20
Cover SCT BKN BKN BKN BKN BKN BKN OVC OVC OVC OVC OVC OVC OVC
FltCat VFR VFR VFR VFR VFR VFR VFR MVFR MVFR MVFR MVFR MVFR MVFR MVFR
WX -- -- -- -- -- -- -- -- -- BR BR BR BR BR
WDir 160 220 220 220 220 220 220 210 210 200 200 200 200 200
WSpd 4 4 4 4 4 4 4 3 3 3 3 3 3 3
WGst -- -- -- -- -- -- -- -- -- -- -- -- -- --

Raw TAF
KPHL 212320Z 2200/2306 22004KT P6SM BKN050
  FM220700 21003KT P6SM OVC030
  FM220900 20003KT 5SM BR OVC020
  FM221400 20006KT P6SM OVC035
  FM222100 17005KT P6SM BKN050
  FM230200 17008KT P6SM BKN120 WS020/20035KT


Raw METAR
KPHL 212354Z 16004KT 10SM FEW040 FEW080 SCT200 08/02 A3018 RMK AO2 SLP219 T00780022 10117 20061 51010
KPHL 212254Z 21004KT 10SM FEW040 FEW080 SCT200 08/02 A3017 RMK AO2 SLP217 T00830017
KPHL 212154Z 21005KT 10SM BKN040 BKN075 BKN200 11/03 A3017 RMK AO2 SLP215 T01060028

METAR Board
Radar Display
Forecast Discussion

FOR SITUATIONAL AWARENESS. NOT TO BE USED FOR FLIGHT PLANNING PURPOSES.